Prosperity, WV (25909)

1:34 AM EST on February 11, 2016 (GMT -0500)
Raleigh County Memorial | | Change Station
CLOSE
Current Station
Airport
Location: Beckley,
Elevation: 2513 ft
Nearby Weather Stations

Elev 2513 ft 37.79 °N, 81.12 °W | Updated 7 minutes ago

Snow
Snow
11 °F
Feels Like -1 °F
N
8
Wind Variable Wind from WNW

Today
High -- | Low -- °F
--% Chance of Precip.
Yesterday
High -- | Low -- °F
Precip. -- in
Pressure 29.98 in
Visibility 3.0 miles
Clouds Scattered Clouds 1800 ft
Scattered Clouds 2600 ft
Overcast 3400 ft
Windchill -1 °F
Dew Point 5 °F
Humidity 77%
Rainfall 0.00 in
Snow Depth Not available.
7:19 AM 5:58 PM
Waxing Crescent, 10% visible
SPECI KBKW 110627Z AUTO 29007KT 3SM -SN SCT018 SCT026 OVC034 M12/M15 A2998 RMK AO2 VIS 3/4 RWY19 P0000 T11171150
Pressure 29.98 in
Visibility 3.0 miles
Clouds Scattered Clouds 1800 ft
Scattered Clouds 2600 ft
Overcast 3400 ft
Windchill -1 °F
Dew Point 5 °F
Humidity 77%
Rainfall 0.00 in
Snow Depth Not available.
7:19 AM 5:58 PM
Waxing Crescent, 10% visible
SPECI KBKW 110627Z AUTO 29007KT 3SM -SN SCT018 SCT026 OVC034 M12/M15 A2998 RMK AO2 VIS 3/4 RWY19 P0000 T11171150

10-Day Weather Forecast

Almanac

Astronomy

Feb. 11, 2016 Rise Set
Actual Time
Civil Twilight
Nautical Twilight
Astronomical Twilight
Moon
Length of Visible Light
Length of Day
Tomorrow will be .
, % of the Moon is Illuminated

Today's Extremes

State Highs State Lows

Community

WunderPhotos

Upload Photos

1,892,028 photos uploaded!

WunderBlog® & News

Nearby

Air Quality

  Air Quality AQ Index Pollutant
Not available.

Snow Depth

Station Depth Elevation

Earthquake Activity

City Distance Mag. Time & Date
Minimum magnitude displayed is 2.5.

Coastal Water Temperatures

Place Temperature

Stations

Nearby Weather Stations

Station Location Temp. Windchill Dew Point Humidity Wind Precip. Elev Updated Type
                   

Watches & Warnings

There are currently no watches in effect.